Time;durP1;ratioP1;P1;durP2;ratioP2;P2;SDS_P1;SDS_P2;PMS_P1;PMS_P2;Temp;Humidity;BMP_temperature;BMP_pressure;BME280_temperature;BME280_humidity;BME280_pressure;Samples;Min_cycle;Max_cycle;Signal;HPM_P1;HPM_P2
2022/05/28 00:00:51;;;;;;;6.80;5.00;;;11.30;99.90;;;;;;4969711;28;20468;-58
2022/05/28 00:03:17;;;;;;;5.80;4.47;;;11.30;99.90;;;;;;4973416;28;20538;-56
2022/05/28 00:05:43;;;;;;;4.87;4.57;;;11.30;1.00;;;;;;4970455;28;20562;-57
2022/05/28 00:08:08;;;;;;;4.90;4.40;;;11.20;1.00;;;;;;4973106;28;20499;-59
2022/05/28 00:10:34;;;;;;;6.17;4.50;;;11.20;1.00;;;;;;4972537;28;20209;-56
2022/05/28 00:12:59;;;;;;;4.93;4.47;;;11.30;1.00;;;;;;4966633;28;20185;-58
2022/05/28 00:15:25;;;;;;;6.60;4.57;;;11.30;1.00;;;;;;4972482;28;20536;-58
2022/05/28 00:17:50;;;;;;;4.90;4.50;;;11.20;1.00;;;;;;4981712;28;20195;-58
2022/05/28 00:20:16;;;;;;;5.73;4.73;;;11.10;1.00;;;;;;4991171;28;20191;-57
2022/05/28 00:22:43;;;;;;;4.80;4.20;;;11.00;1.00;;;;;;4966759;28;20252;-58
2022/05/28 00:25:10;;;;;;;7.10;4.80;;;10.90;99.90;;;;;;4953716;29;20561;-57
2022/05/28 00:27:37;;;;;;;4.97;4.47;;;10.80;99.90;;;;;;4953673;29;20414;-58
2022/05/28 00:30:04;;;;;;;5.20;4.70;;;10.70;1.00;;;;;;4955154;28;20441;-58
2022/05/28 00:32:30;;;;;;;5.40;4.47;;;10.60;1.00;;;;;;4972857;28;20459;-57
2022/05/28 00:34:56;;;;;;;4.83;4.33;;;10.50;99.90;;;;;;4968385;28;20947;-59
2022/05/28 00:37:22;;;;;;;5.37;4.40;;;10.50;99.90;;;;;;4995426;28;20243;-58
2022/05/28 00:39:47;;;;;;;5.00;4.50;;;10.30;99.90;;;;;;4972555;28;20977;-59
2022/05/28 00:42:13;;;;;;;7.70;5.23;;;10.10;99.90;;;;;;4994146;28;20506;-56
2022/05/28 00:44:38;;;;;;;4.63;4.10;;;10.10;1.00;;;;;;4972732;28;20244;-56
2022/05/28 00:47:05;;;;;;;5.20;4.40;;;10.00;1.00;;;;;;4978252;28;20193;-55
2022/05/28 00:49:32;;;;;;;4.50;4.13;;;10.00;1.00;;;;;;4982740;28;20227;-54
2022/05/28 00:52:00;;;;;;;4.70;4.30;;;9.90;1.00;;;;;;4971765;28;20527;-57
2022/05/28 00:54:43;;;;;;;4.63;3.87;;;9.90;52.30;;;;;;4979435;28;20436;-58
2022/05/28 00:57:11;;;;;;;4.23;3.83;;;10.00;1.00;;;;;;4959323;28;20507;-58
2022/05/28 00:59:36;;;;;;;5.17;4.33;;;10.00;1.00;;;;;;4972392;28;20400;-58
2022/05/28 01:02:15;;;;;;;3.87;3.50;;;10.00;1.00;;;;;;4956103;28;20440;-58
2022/05/28 01:04:53;;;;;;;4.87;4.13;;;10.10;99.90;;;;;;4952905;29;20182;-57
2022/05/28 01:07:35;;;;;;;11.33;3.70;;;10.10;1.00;;;;;;4963376;28;20511;-56
2022/05/28 01:10:22;;;;;;;5.53;3.40;;;10.10;1.00;;;;;;4972454;28;20815;-59
2022/05/28 01:13:09;;;;;;;4.70;3.40;;;10.30;99.90;;;;;;4971255;28;20502;-58
2022/05/28 01:15:43;;;;;;;7.87;3.77;;;10.20;67.10;;;;;;4973447;28;20445;-58
2022/05/28 01:18:18;;;;;;;7.80;3.63;;;10.20;99.90;;;;;;4958340;28;20528;-57
2022/05/28 01:20:54;;;;;;;4.37;3.97;;;10.10;99.90;;;;;;4952571;28;20405;-57
2022/05/28 01:23:35;;;;;;;4.73;3.50;;;10.10;1.00;;;;;;4952494;28;20781;-57
2022/05/28 01:26:03;;;;;;;3.83;3.30;;;10.00;99.90;;;;;;4952205;29;20414;-58
2022/05/28 01:28:43;;;;;;;4.73;4.20;;;10.10;1.00;;;;;;4951467;28;20440;-57
2022/05/28 01:31:11;;;;;;;5.23;4.00;;;10.20;1.00;;;;;;4962674;28;20542;-55
2022/05/28 01:33:41;;;;;;;5.30;4.10;;;10.30;99.90;;;;;;4972026;28;20479;-57
2022/05/28 01:36:09;;;;;;;8.93;3.60;;;10.40;1.00;;;;;;4977239;28;20456;-57
2022/05/28 01:38:38;;;;;;;4.97;3.50;;;10.30;88.60;;;;;;4971069;28;20890;-57
2022/05/28 01:41:06;;;;;;;4.73;3.60;;;10.40;1.00;;;;;;4974899;28;20446;-58
2022/05/28 01:43:37;;;;;;;3.83;3.37;;;10.50;99.90;;;;;;4972731;28;21009;-58
2022/05/28 01:46:05;;;;;;;4.73;3.50;;;10.50;1.00;;;;;;4964699;28;20466;-55
2022/05/28 01:48:30;;;;;;;5.30;4.50;;;10.50;99.90;;;;;;4964155;28;20433;-56
2022/05/28 01:50:57;;;;;;;7.20;3.93;;;10.50;1.00;;;;;;4968086;28;20468;-55
2022/05/28 01:56:10;;;;;;;4.60;4.00;;;10.40;93.40;;;;;;4967971;28;20896;-55
2022/05/28 01:58:36;;;;;;;6.27;3.43;;;10.40;1.00;;;;;;4979363;28;20948;-57
2022/05/28 02:01:04;;;;;;;6.00;3.83;;;10.40;1.00;;;;;;4970845;28;20464;-56
2022/05/28 02:03:32;;;;;;;6.53;3.27;;;10.30;1.00;;;;;;4957685;28;20449;-58
2022/05/28 02:05:58;;;;;;;7.60;4.20;;;10.30;99.90;;;;;;4964898;28;20425;-57
2022/05/28 02:08:24;;;;;;;8.90;4.67;;;10.30;1.00;;;;;;4963920;28;20841;-57
2022/05/28 02:11:08;;;;;;;7.40;3.80;;;10.30;1.00;;;;;;4960098;28;20464;-55
2022/05/28 02:14:10;;;;;;;6.83;4.00;;;10.30;99.90;;;;;;4970905;28;20904;-54
2022/05/28 02:17:08;;;;;;;3.97;3.57;;;10.30;1.00;;;;;;4976679;28;20891;-57
2022/05/28 02:19:59;;;;;;;5.37;3.10;;;10.20;99.90;;;;;;4970863;28;20467;-54
2022/05/28 02:22:52;;;;;;;4.60;4.10;;;10.20;1.00;;;;;;4970229;28;20427;-57
2022/05/28 02:25:26;;;;;;;4.10;3.70;;;10.10;1.00;;;;;;4970766;28;20435;-58
2022/05/28 02:27:53;;;;;;;8.50;4.03;;;10.20;1.00;;;;;;4970674;28;20428;-57
2022/05/28 02:30:20;;;;;;;4.00;3.60;;;10.40;99.90;;;;;;4968734;28;20471;-56
2022/05/28 02:32:45;;;;;;;6.13;3.73;;;10.40;99.90;;;;;;4970479;28;20421;-57
2022/05/28 02:35:12;;;;;;;6.30;3.70;;;10.50;1.00;;;;;;4972351;28;20433;-58
2022/05/28 02:37:38;;;;;;;10.30;4.03;;;10.50;99.90;;;;;;4970177;28;20265;-57
2022/05/28 02:40:04;;;;;;;7.07;4.10;;;10.40;1.80;;;;;;4971155;28;20448;-59
2022/05/28 02:42:30;;;;;;;4.40;3.80;;;10.50;99.90;;;;;;4966040;28;20432;-58
2022/05/28 02:44:55;;;;;;;5.50;4.10;;;10.50;1.00;;;;;;4970719;28;20781;-58
2022/05/28 02:47:21;;;;;;;7.77;4.30;;;10.40;99.90;;;;;;4972070;28;20437;-59
2022/05/28 02:49:46;;;;;;;5.87;3.83;;;10.50;99.90;;;;;;4970798;28;20181;-58
2022/05/28 02:52:12;;;;;;;5.63;3.93;;;10.50;1.00;;;;;;4968493;28;20739;-56
2022/05/28 02:54:38;;;;;;;6.43;3.83;;;10.50;99.90;;;;;;4969567;28;20189;-58
2022/05/28 02:57:04;;;;;;;4.40;3.87;;;10.50;10.50;;;;;;4970028;28;20225;-58
2022/05/28 02:59:31;;;;;;;5.80;4.17;;;10.40;99.90;;;;;;4969803;28;20735;-59
2022/05/28 03:01:57;;;;;;;5.00;3.70;;;10.40;99.90;;;;;;4968280;28;20431;-59
2022/05/28 03:04:22;;;;;;;4.97;3.70;;;10.50;1.00;;;;;;4970131;28;20428;-57
2022/05/28 03:06:48;;;;;;;4.13;3.70;;;10.50;1.00;;;;;;4967466;28;20976;-58
2022/05/28 03:09:16;;;;;;;5.60;4.10;;;10.60;1.00;;;;;;4970517;28;20284;-54
2022/05/28 03:11:41;;;;;;;3.37;3.17;;;10.60;99.90;;;;;;4969246;28;20211;-59
2022/05/28 03:14:07;;;;;;;3.50;3.20;;;10.60;91.80;;;;;;4970167;28;20416;-59
2022/05/28 03:16:33;;;;;;;6.03;3.77;;;10.50;99.90;;;;;;4971115;28;20193;-59
2022/05/28 03:18:59;;;;;;;5.37;4.00;;;10.50;1.00;;;;;;4969938;28;20191;-56
2022/05/28 03:21:25;;;;;;;4.37;3.50;;;10.50;1.00;;;;;;4963025;28;21275;-57
2022/05/28 03:23:50;;;;;;;4.57;3.63;;;10.50;1.00;;;;;;4968068;28;20588;-58
2022/05/28 03:26:22;;;;;;;7.20;3.67;;;10.50;1.00;;;;;;4970183;28;20264;-58
2022/05/28 03:28:49;;;;;;;3.70;3.40;;;10.40;99.90;;;;;;4966325;28;20212;-57
2022/05/28 03:31:15;;;;;;;8.63;5.07;;;10.40;2.50;;;;;;4970115;28;20459;-58
2022/05/28 03:33:42;;;;;;;5.40;3.90;;;10.40;99.90;;;;;;4969044;28;20507;-58
2022/05/28 03:36:08;;;;;;;5.20;3.77;;;10.30;1.00;;;;;;4970255;28;20420;-58
2022/05/28 03:38:34;;;;;;;4.67;3.93;;;10.30;1.00;;;;;;4969816;28;20769;-58
2022/05/28 03:40:59;;;;;;;5.13;3.60;;;10.30;1.00;;;;;;4969810;28;20423;-59
2022/05/28 03:43:25;;;;;;;5.30;3.90;;;10.40;1.00;;;;;;4975737;28;20497;-58
2022/05/28 03:45:51;;;;;;;4.17;3.77;;;10.40;1.00;;;;;;4973596;28;20550;-57
2022/05/28 03:48:17;;;;;;;4.93;3.63;;;10.60;99.90;;;;;;4971588;28;20522;-58
2022/05/28 03:50:43;;;;;;;4.70;3.93;;;10.60;17.90;;;;;;4973534;28;21051;-56
2022/05/28 03:53:09;;;;;;;4.27;3.20;;;10.70;99.20;;;;;;4960845;28;20963;-57
2022/05/28 03:55:37;;;;;;;5.77;3.80;;;10.80;1.00;;;;;;4973434;28;20417;-58
2022/05/28 03:58:02;;;;;;;5.10;3.40;;;10.80;1.00;;;;;;4963078;28;20441;-57
2022/05/28 04:00:30;;;;;;;5.43;3.67;;;10.80;99.90;;;;;;4960443;28;20437;-57
2022/05/28 04:02:56;;;;;;;5.80;3.73;;;10.80;1.00;;;;;;4972039;28;20192;-51
2022/05/28 04:05:23;;;;;;;3.90;3.20;;;10.90;99.90;;;;;;4973226;28;20416;-56
2022/05/28 04:07:48;;;;;;;5.37;3.50;;;10.90;1.00;;;;;;4970575;28;20840;-58
2022/05/28 04:10:14;;;;;;;4.10;3.70;;;10.90;99.90;;;;;;4954074;28;20464;-57
2022/05/28 04:12:40;;;;;;;4.73;3.10;;;10.80;59.30;;;;;;4967973;28;20556;-55
2022/05/28 04:15:07;;;;;;;3.50;3.30;;;10.90;1.00;;;;;;4972721;28;20529;-57
2022/05/28 04:17:33;;;;;;;4.47;3.20;;;11.00;1.00;;;;;;4988187;28;20192;-57
2022/05/28 04:19:58;;;;;;;3.63;3.33;;;11.00;1.00;;;;;;4971779;28;20425;-55
2022/05/28 04:22:24;;;;;;;4.67;3.20;;;11.00;26.10;;;;;;4971550;28;20187;-57
2022/05/28 04:24:49;;;;;;;8.20;3.20;;;11.10;1.00;;;;;;4973028;28;20197;-59
2022/05/28 04:27:15;;;;;;;3.50;3.17;;;11.00;1.00;;;;;;4962179;28;20198;-57
2022/05/28 04:29:40;;;;;;;4.33;3.37;;;11.20;1.00;;;;;;4953662;28;20248;-58
2022/05/28 04:32:06;;;;;;;4.90;3.07;;;11.20;1.00;;;;;;4971615;28;20208;-60
2022/05/28 04:34:32;;;;;;;6.00;3.13;;;11.20;99.90;;;;;;4975158;28;21021;-59
2022/05/28 04:36:57;;;;;;;3.93;2.80;;;11.20;1.00;;;;;;4982990;28;20511;-59
2022/05/28 04:39:23;;;;;;;3.30;2.90;;;11.30;99.90;;;;;;4957076;28;20192;-59
2022/05/28 04:41:48;;;;;;;5.27;3.07;;;11.20;99.90;;;;;;4980038;28;20490;-57
2022/05/28 04:44:14;;;;;;;3.67;3.03;;;11.30;1.00;;;;;;4972091;28;20189;-56
2022/05/28 04:46:39;;;;;;;5.30;3.17;;;11.30;99.90;;;;;;4972382;28;20189;-56
2022/05/28 04:49:05;;;;;;;3.33;3.13;;;11.30;99.90;;;;;;4971147;28;20629;-57
2022/05/28 04:51:31;;;;;;;3.50;3.03;;;11.30;1.00;;;;;;4972179;28;20204;-54
2022/05/28 04:53:56;;;;;;;3.77;3.20;;;11.30;99.90;;;;;;4957772;28;20821;-55
2022/05/28 04:56:22;;;;;;;7.20;3.93;;;11.30;99.90;;;;;;4972137;28;20468;-55
2022/05/28 04:58:48;;;;;;;4.43;4.10;;;11.20;99.90;;;;;;4972117;28;20228;-58
2022/05/28 05:01:15;;;;;;;3.90;3.50;;;11.00;1.00;;;;;;4974348;28;20271;-57
2022/05/28 05:03:41;;;;;;;3.47;3.00;;;10.70;1.00;;;;;;4974324;28;20247;-54
2022/05/28 05:06:06;;;;;;;4.33;3.47;;;10.50;1.00;;;;;;4968889;28;20830;-55
2022/05/28 05:08:32;;;;;;;4.30;3.40;;;10.30;1.00;;;;;;4972028;28;20216;-59
2022/05/28 05:10:58;;;;;;;5.73;3.07;;;10.20;1.00;;;;;;4971786;28;20216;-58
2022/05/28 05:13:23;;;;;;;4.80;3.43;;;10.10;14.60;;;;;;4965775;28;20192;-56
2022/05/28 05:15:49;;;;;;;5.37;3.30;;;10.00;10.80;;;;;;4971679;28;20185;-56
2022/05/28 05:18:15;;;;;;;5.57;2.93;;;10.00;9.30;;;;;;4971956;28;20432;-56
2022/05/28 05:20:41;;;;;;;4.90;3.10;;;10.00;26.50;;;;;;4972090;28;20659;-58
2022/05/28 05:23:06;;;;;;;3.80;3.30;;;9.90;29.50;;;;;;4971983;28;20432;-55
2022/05/28 05:25:32;;;;;;;6.27;3.67;;;9.90;42.70;;;;;;4961792;28;20580;-54
2022/05/28 05:27:58;;;;;;;4.33;3.20;;;9.90;47.40;;;;;;4971450;28;20189;-53
2022/05/28 05:30:24;;;;;;;5.70;3.33;;;9.90;47.60;;;;;;4972622;28;20219;-55
2022/05/28 05:32:49;;;;;;;7.70;3.80;;;9.90;44.30;;;;;;4983392;28;20432;-54
2022/05/28 05:35:15;;;;;;;6.00;3.60;;;9.80;37.90;;;;;;4976731;28;20973;-56
2022/05/28 05:37:40;;;;;;;5.37;3.20;;;9.80;43.20;;;;;;4966075;28;20248;-56
2022/05/28 05:40:07;;;;;;;4.80;3.37;;;9.70;42.60;;;;;;4967731;28;20193;-54
2022/05/28 05:42:32;;;;;;;3.90;3.10;;;9.70;39.70;;;;;;4970431;28;20184;-56
2022/05/28 05:44:58;;;;;;;3.50;2.93;;;9.80;34.30;;;;;;4971470;28;20425;-57
2022/05/28 05:47:24;;;;;;;3.67;2.73;;;9.80;26.90;;;;;;4971067;28;20192;-57
2022/05/28 05:49:50;;;;;;;3.17;2.87;;;9.70;1.00;;;;;;4968582;28;20244;-55
2022/05/28 05:52:16;;;;;;;2.90;2.70;;;9.80;1.00;;;;;;4964712;28;20283;-56
2022/05/28 05:54:42;;;;;;;4.87;2.73;;;9.70;1.00;;;;;;4971202;28;20427;-53
2022/05/28 05:57:08;;;;;;;4.33;2.60;;;9.70;1.00;;;;;;4970751;28;20464;-56
2022/05/28 05:59:34;;;;;;;4.23;2.40;;;9.70;1.00;;;;;;4971211;28;20181;-55
2022/05/28 06:02:00;;;;;;;6.83;2.77;;;9.60;1.00;;;;;;4969071;28;20451;-58
2022/05/28 06:04:25;;;;;;;3.47;3.17;;;9.60;1.00;;;;;;4961718;28;20185;-55
2022/05/28 06:06:51;;;;;;;2.63;2.33;;;9.60;1.00;;;;;;4969340;28;20499;-54
2022/05/28 06:09:17;;;;;;;2.47;2.17;;;9.70;1.00;;;;;;4960994;28;20609;-57
2022/05/28 06:11:42;;;;;;;2.33;2.13;;;9.60;1.00;;;;;;4970508;28;20235;-56
2022/05/28 06:14:08;;;;;;;2.90;1.90;;;9.60;1.00;;;;;;4961135;28;20211;-57
2022/05/28 06:16:34;;;;;;;3.17;2.43;;;9.50;1.00;;;;;;4970921;28;20239;-52
2022/05/28 06:18:59;;;;;;;1.80;1.70;;;9.60;1.00;;;;;;4969822;28;20193;-54
2022/05/28 06:21:26;;;;;;;2.30;1.60;;;9.70;1.00;;;;;;4979154;28;21073;-55
2022/05/28 06:23:52;;;;;;;1.53;1.40;;;9.70;1.00;;;;;;4951771;28;20193;-55
2022/05/28 06:26:17;;;;;;;2.70;1.73;;;9.70;1.00;;;;;;4957895;28;20439;-57
2022/05/28 06:28:43;;;;;;;2.67;1.60;;;9.90;1.00;;;;;;4970659;28;20200;-56
2022/05/28 06:31:10;;;;;;;1.80;1.67;;;9.90;1.00;;;;;;4970841;28;20291;-53
2022/05/28 06:33:37;;;;;;;1.90;1.50;;;10.00;1.00;;;;;;4969011;28;20181;-55
2022/05/28 06:36:04;;;;;;;2.53;1.67;;;10.30;1.00;;;;;;4968560;28;20432;-56
2022/05/28 06:38:30;;;;;;;1.60;1.50;;;10.40;1.00;;;;;;4970520;28;20914;-53
2022/05/28 06:40:56;;;;;;;1.93;1.70;;;10.50;1.00;;;;;;4970518;28;20564;-54
2022/05/28 06:43:22;;;;;;;1.70;1.60;;;10.50;1.00;;;;;;4969242;28;20200;-59
2022/05/28 06:45:48;;;;;;;2.23;1.40;;;10.60;1.00;;;;;;4966410;28;21368;-57
2022/05/28 06:48:14;;;;;;;2.10;1.77;;;10.70;1.00;;;;;;4970703;28;20428;-57
2022/05/28 06:53:25;;;;;;;1.80;1.70;;;11.00;1.00;;;;;;4966739;28;20428;-57
2022/05/28 06:55:51;;;;;;;3.10;2.10;;;11.20;1.00;;;;;;4961879;28;20924;-54
2022/05/28 06:58:17;;;;;;;2.97;2.03;;;11.30;1.00;;;;;;4970453;28;20463;-59
2022/05/28 07:00:42;;;;;;;2.13;1.90;;;11.20;1.00;;;;;;4969509;28;20192;-54
2022/05/28 07:03:14;;;;;;;2.20;1.87;;;11.30;1.00;;;;;;4970522;28;20612;-56
2022/05/28 07:05:40;;;;;;;2.27;2.07;;;11.40;1.00;;;;;;4968678;28;20235;-56
2022/05/28 07:08:05;;;;;;;2.40;2.03;;;11.60;1.00;;;;;;4970673;28;20416;-53
2022/05/28 07:10:31;;;;;;;2.20;2.00;;;11.80;99.90;;;;;;4966492;28;20706;-57
2022/05/28 07:12:56;;;;;;;2.80;2.10;;;12.00;99.90;;;;;;4969920;28;20519;-57
2022/05/28 07:15:23;;;;;;;2.10;2.00;;;12.10;79.00;;;;;;4970385;28;20686;-57
2022/05/28 07:17:48;;;;;;;2.63;2.30;;;12.20;1.00;;;;;;4965671;28;20210;-57
2022/05/28 07:20:14;;;;;;;3.10;2.57;;;12.20;99.90;;;;;;4974267;28;20486;-51
2022/05/28 07:22:40;;;;;;;3.33;2.63;;;12.10;99.90;;;;;;4975548;28;20193;-55
2022/05/28 07:25:06;;;;;;;3.27;2.73;;;12.00;1.00;;;;;;4972208;28;20503;-55
2022/05/28 07:27:32;;;;;;;4.00;2.70;;;11.90;1.00;;;;;;4967499;28;20527;-55
2022/05/28 07:29:57;;;;;;;3.27;2.80;;;11.90;75.20;;;;;;4973738;28;20602;-56
2022/05/28 07:32:25;;;;;;;2.90;2.70;;;12.10;1.00;;;;;;4968591;28;20209;-55
2022/05/28 07:34:51;;;;;;;2.90;2.60;;;12.20;1.00;;;;;;4964384;28;20216;-58
2022/05/28 07:37:17;;;;;;;3.43;3.17;;;12.40;99.90;;;;;;4967156;28;20991;-55
2022/05/28 07:39:42;;;;;;;3.73;3.40;;;12.40;1.00;;;;;;4973684;28;20511;-56
2022/05/28 07:42:08;;;;;;;3.87;3.50;;;12.50;71.20;;;;;;4966924;28;20445;-56
2022/05/28 07:44:35;;;;;;;3.83;3.00;;;12.80;99.90;;;;;;4973116;28;20196;-57
2022/05/28 07:47:05;;;;;;;3.43;3.13;;;12.90;1.00;;;;;;4969708;28;20231;-56
2022/05/28 07:49:30;;;;;;;3.40;2.87;;;13.00;99.90;;;;;;4997856;28;20448;-56
2022/05/28 07:51:55;;;;;;;3.87;2.97;;;12.70;1.00;;;;;;4979818;28;20905;-57
2022/05/28 07:54:21;;;;;;;3.27;3.00;;;12.40;1.00;;;;;;4970052;28;20189;-57
2022/05/28 07:56:46;;;;;;;3.20;3.00;;;12.30;1.00;;;;;;4973248;28;20220;-53
2022/05/28 07:59:12;;;;;;;3.80;2.80;;;12.50;99.90;;;;;;4973285;28;20185;-56
2022/05/28 08:01:39;;;;;;;3.27;3.00;;;12.80;99.90;;;;;;4968782;28;20201;-56
2022/05/28 08:04:06;;;;;;;3.57;3.27;;;13.00;1.00;;;;;;4973295;28;20693;-56
2022/05/28 08:06:32;;;;;;;7.77;3.60;;;13.00;1.00;;;;;;4970391;28;20762;-57
2022/05/28 08:08:58;;;;;;;3.60;3.40;;;13.00;99.90;;;;;;4973155;28;20439;-58
2022/05/28 08:11:24;;;;;;;4.40;4.00;;;13.00;1.00;;;;;;4967029;28;20289;-56
2022/05/28 08:13:51;;;;;;;3.67;3.37;;;12.90;1.00;;;;;;4967658;28;20463;-54
2022/05/28 08:16:17;;;;;;;3.93;3.23;;;13.10;99.90;;;;;;4971971;28;20547;-54
2022/05/28 08:18:43;;;;;;;3.83;3.53;;;13.30;99.90;;;;;;4972969;28;20484;-57
2022/05/28 08:23:54;;;;;;;3.53;3.23;;;13.60;99.90;;;;;;4973475;28;20176;-57
2022/05/28 08:26:21;;;;;;;3.70;3.30;;;13.60;76.90;;;;;;4967309;28;20436;-57
2022/05/28 08:28:48;;;;;;;3.27;3.00;;;13.80;99.90;;;;;;4992040;28;20423;-58
2022/05/28 08:31:14;;;;;;;3.87;3.53;;;14.00;99.90;;;;;;4978147;28;20472;-56
2022/05/28 08:33:40;;;;;;;3.70;3.50;;;14.20;84.30;;;;;;4952831;28;20448;-57
2022/05/28 08:36:06;;;;;;;3.50;3.30;;;14.30;1.00;;;;;;4966797;28;20416;-57
2022/05/28 08:38:32;;;;;;;4.93;4.00;;;14.00;1.00;;;;;;4976490;28;20501;-56
2022/05/28 08:41:06;;;;;;;3.60;3.40;;;13.60;97.80;;;;;;4976953;28;20204;-56
2022/05/28 08:43:35;;;;;;;3.80;3.50;;;13.20;99.90;;;;;;4966149;28;20446;-58
2022/05/28 08:46:01;;;;;;;3.63;3.33;;;13.10;99.90;;;;;;4972339;28;20910;-57
2022/05/28 08:48:48;;;;;;;4.27;3.60;;;13.40;99.90;;;;;;4969873;28;20433;-57
2022/05/28 08:51:40;;;;;;;3.27;3.00;;;13.70;99.90;;;;;;4972850;28;20587;-57
2022/05/28 08:54:24;;;;;;;7.40;3.50;;;14.10;1.00;;;;;;4972631;28;20971;-59
2022/05/28 08:56:53;;;;;;;3.57;3.37;;;14.30;30.00;;;;;;4977581;28;20483;-59
2022/05/28 08:59:24;;;;;;;3.63;3.33;;;14.30;1.00;;;;;;4991638;28;20446;-56
2022/05/28 09:01:51;;;;;;;4.03;3.70;;;14.20;1.00;;;;;;4963332;28;20811;-58
2022/05/28 09:04:27;;;;;;;3.83;3.50;;;14.00;1.00;;;;;;4984120;28;20436;-58
2022/05/28 09:07:05;;;;;;;3.83;3.40;;;14.00;1.00;;;;;;4951808;28;20429;-58
2022/05/28 09:09:44;;;;;;;3.70;3.30;;;14.10;1.00;;;;;;4953172;29;20419;-58
2022/05/28 09:12:25;;;;;;;3.80;3.47;;;13.90;1.00;;;;;;4952727;29;20851;-56
2022/05/28 09:14:51;;;;;;;4.10;3.80;;;13.80;1.00;;;;;;4962816;28;20444;-59
2022/05/28 09:17:38;;;;;;;4.30;3.90;;;13.80;1.00;;;;;;4979709;28;20498;-59
2022/05/28 09:20:21;;;;;;;4.47;3.60;;;13.90;1.00;;;;;;4972104;28;20177;-55
2022/05/28 09:22:47;;;;;;;3.70;3.20;;;14.10;1.00;;;;;;4972233;28;20467;-59
2022/05/28 09:25:17;;;;;;;4.00;3.40;;;14.00;1.00;;;;;;4972344;28;20448;-58
2022/05/28 09:28:06;;;;;;;3.73;3.43;;;14.10;1.00;;;;;;4971783;28;21158;-58
2022/05/28 09:30:47;;;;;;;3.60;3.33;;;14.30;1.00;;;;;;4966541;28;20787;-57
2022/05/28 09:33:26;;;;;;;3.20;3.00;;;14.40;1.00;;;;;;4976795;28;21272;-59
2022/05/28 09:36:46;;;;;;;4.10;3.80;;;14.60;1.00;;;;;;4961865;28;20440;-58
2022/05/28 09:39:27;;;;;;;4.00;3.60;;;14.70;1.00;;;;;;4978082;28;20556;-58
2022/05/28 09:42:17;;;;;;;4.00;3.60;;;14.70;1.00;;;;;;4971398;28;21290;-59
2022/05/28 09:44:49;;;;;;;3.67;3.47;;;14.70;1.00;;;;;;4981925;28;20439;-57
2022/05/28 09:47:19;;;;;;;4.07;3.77;;;14.80;1.00;;;;;;4952008;28;20466;-57
2022/05/28 09:49:55;;;;;;;4.07;3.67;;;15.00;99.90;;;;;;4968159;28;20447;-58
2022/05/28 09:54:16;;;;;;;4.77;4.20;;;15.30;99.90;;;;;;4984899;28;20480;-59
2022/05/28 09:55:19;;;;;;;3.50;3.20;;;15.80;1.00;;;;;;4980650;28;20440;-59
2022/05/28 09:57:55;;;;;;;4.77;3.70;;;16.30;99.90;;;;;;4963828;28;20481;-57
2022/05/28 10:00:22;;;;;;;3.47;3.27;;;16.40;99.90;;;;;;4975485;28;20486;-58
2022/05/28 10:05:54;;;;;;;3.70;3.50;;;16.90;99.90;;;;;;4971642;28;20475;-58
2022/05/28 10:08:20;;;;;;;4.20;3.63;;;16.70;99.90;;;;;;4971191;28;20430;-56
2022/05/28 10:10:56;;;;;;;4.43;4.07;;;16.50;99.90;;;;;;4971029;28;20462;-58
2022/05/28 10:13:25;;;;;;;4.17;3.87;;;16.40;99.90;;;;;;4969762;28;20217;-57
2022/05/28 10:16:01;;;;;;;3.77;3.43;;;16.40;99.90;;;;;;4968981;28;20465;-58
2022/05/28 10:18:52;;;;;;;3.77;3.47;;;16.30;99.90;;;;;;4968992;28;20532;-56
2022/05/28 10:21:24;;;;;;;3.80;3.50;;;16.00;99.90;;;;;;4966188;28;20535;-58
2022/05/28 10:23:53;;;;;;;3.50;3.30;;;15.60;99.90;;;;;;4970374;28;20426;-59
2022/05/28 10:26:29;;;;;;;3.63;3.43;;;16.40;99.90;;;;;;4970860;28;20523;-57
2022/05/28 10:28:59;;;;;;;3.47;3.27;;;16.90;99.90;;;;;;4962895;28;20458;-58
2022/05/28 10:31:35;;;;;;;3.60;3.40;;;16.70;99.90;;;;;;4973929;28;20465;-59
2022/05/28 10:34:00;;;;;;;4.03;3.73;;;16.20;99.90;;;;;;4970826;28;20440;-55
2022/05/28 10:36:30;;;;;;;5.10;3.80;;;16.20;99.90;;;;;;4972415;28;20481;-57
2022/05/28 10:39:13;;;;;;;3.70;3.50;;;16.70;99.90;;;;;;4968083;28;20637;-57
2022/05/28 10:41:42;;;;;;;3.63;3.33;;;17.70;99.90;;;;;;4970226;28;20438;-58
2022/05/28 10:44:08;;;;;;;4.10;3.80;;;17.70;99.90;;;;;;4970697;28;20473;-59
2022/05/28 10:46:42;;;;;;;4.10;3.80;;;17.30;99.90;;;;;;4964847;28;20453;-57
2022/05/28 10:49:08;;;;;;;4.20;3.90;;;16.90;99.90;;;;;;4955646;28;20484;-58
2022/05/28 10:51:56;;;;;;;4.03;3.73;;;16.60;99.90;;;;;;4970780;28;20499;-57
2022/05/28 10:54:39;;;;;;;3.97;3.67;;;16.50;99.90;;;;;;4971506;28;20201;-59
2022/05/28 10:57:35;;;;;;;4.03;3.60;;;16.60;99.90;;;;;;4973937;28;20530;-59
2022/05/28 11:00:03;;;;;;;5.70;3.73;;;17.70;99.90;;;;;;4976463;28;20442;-59
2022/05/28 11:02:41;;;;;;;3.80;3.50;;;18.80;99.90;;;;;;4973301;28;20526;-59
2022/05/28 11:05:26;;;;;;;4.03;3.73;;;19.30;99.90;;;;;;4968501;28;20527;-59
2022/05/28 11:08:00;;;;;;;4.00;3.60;;;19.10;99.90;;;;;;4965017;28;20489;-57
2022/05/28 11:10:41;;;;;;;3.90;3.60;;;19.60;99.90;;;;;;4968706;28;20427;-58
2022/05/28 11:13:16;;;;;;;3.40;3.20;;;20.20;99.90;;;;;;4960872;28;20484;-59
2022/05/28 11:16:09;;;;;;;3.70;3.50;;;20.60;99.90;;;;;;4971643;28;21220;-55
2022/05/28 11:18:52;;;;;;;3.70;3.50;;;20.30;99.90;;;;;;4962148;28;20445;-58
2022/05/28 11:21:31;;;;;;;5.03;3.60;;;19.00;99.90;;;;;;4967519;28;21135;-58
2022/05/28 11:24:24;;;;;;;4.40;3.37;;;18.60;99.90;;;;;;4967755;28;20447;-55
2022/05/28 11:26:59;;;;;;;4.10;3.80;;;18.30;99.90;;;;;;4967783;28;20930;-57
2022/05/28 11:29:31;;;;;;;3.83;3.43;;;18.20;99.90;;;;;;4974946;28;20458;-56
2022/05/28 11:32:02;;;;;;;3.30;3.20;;;18.10;99.90;;;;;;4974663;28;20484;-56
2022/05/28 11:34:49;;;;;;;4.20;3.87;;;18.10;99.90;;;;;;4967128;28;20452;-57
2022/05/28 11:37:29;;;;;;;4.40;4.10;;;18.50;99.90;;;;;;4970599;28;20424;-53
2022/05/28 11:40:22;;;;;;;3.80;3.60;;;18.20;99.90;;;;;;4967125;28;20475;-58
2022/05/28 11:42:55;;;;;;;4.50;3.60;;;18.40;99.90;;;;;;4974235;28;21350;-53
2022/05/28 11:45:47;;;;;;;4.17;3.77;;;19.10;99.90;;;;;;4972858;28;20851;-50
2022/05/28 11:51:33;;;;;;;3.87;3.60;;;20.10;99.90;;;;;;4968488;28;20999;-58
2022/05/28 11:54:11;;;;;;;3.93;3.63;;;19.50;99.90;;;;;;4965905;28;21006;-57
2022/05/28 11:56:37;;;;;;;5.90;3.80;;;18.00;99.90;;;;;;4971158;28;20476;-57
2022/05/28 11:59:07;;;;;;;4.03;3.83;;;17.80;99.90;;;;;;4962873;28;20449;-58
2022/05/28 12:01:59;;;;;;;3.50;3.20;;;17.70;99.90;;;;;;4971244;28;20502;-58
2022/05/28 12:04:25;;;;;;;3.87;3.60;;;18.30;99.90;;;;;;4965746;28;20790;-58
2022/05/28 12:07:04;;;;;;;3.63;3.33;;;19.30;99.90;;;;;;4962037;28;20453;-59
2022/05/28 12:09:34;;;;;;;3.30;3.10;;;20.20;99.90;;;;;;4963211;28;20449;-58
2022/05/28 12:12:19;;;;;;;3.50;3.30;;;20.30;99.90;;;;;;4969059;28;21034;-59
2022/05/28 12:14:48;;;;;;;3.60;3.30;;;20.40;99.90;;;;;;4970493;28;20418;-60
2022/05/28 12:17:17;;;;;;;3.60;3.40;;;21.40;99.90;;;;;;4963488;28;20451;-59
2022/05/28 12:19:54;;;;;;;3.33;3.23;;;22.00;99.90;;;;;;4961253;28;20483;-57
2022/05/28 12:22:53;;;;;;;3.47;3.27;;;21.80;99.90;;;;;;4967315;28;20539;-55
2022/05/28 12:25:42;;;;;;;4.00;3.67;;;21.40;99.90;;;;;;4966842;28;20462;-51
2022/05/28 12:28:12;;;;;;;3.60;3.37;;;21.90;99.90;;;;;;4970814;28;20456;-50
2022/05/28 12:30:39;;;;;;;3.60;3.40;;;22.80;99.90;;;;;;4968648;28;20468;-52
2022/05/28 12:33:16;;;;;;;3.10;2.90;;;23.50;99.90;;;;;;4977334;28;20474;-54
2022/05/28 12:36:16;;;;;;;3.97;3.67;;;23.10;99.90;;;;;;4968300;28;20962;-51
2022/05/28 12:39:03;;;;;;;4.93;3.23;;;22.90;99.90;;;;;;4971107;28;20519;-53
2022/05/28 12:41:31;;;;;;;4.13;3.90;;;21.80;99.90;;;;;;4961745;28;20453;-56
2022/05/28 12:44:15;;;;;;;4.00;3.80;;;20.90;99.90;;;;;;4969715;28;20511;-52
2022/05/28 12:46:54;;;;;;;3.90;3.60;;;20.30;99.90;;;;;;4953212;28;20429;-54
2022/05/28 12:50:08;;;;;;;4.30;3.90;;;19.50;99.90;;;;;;4970320;28;20420;-55
2022/05/28 12:53:06;;;;;;;3.90;3.70;;;19.30;99.90;;;;;;4981633;28;20570;-51
2022/05/28 12:55:37;;;;;;;3.93;3.73;;;18.90;99.90;;;;;;4972187;28;20404;-52
2022/05/28 12:58:10;;;;;;;3.87;3.67;;;19.40;99.90;;;;;;4969857;28;21089;-53
2022/05/28 13:00:48;;;;;;;4.30;4.00;;;19.40;99.90;;;;;;4966534;28;20444;-54
2022/05/28 13:03:16;;;;;;;3.60;3.40;;;19.10;99.90;;;;;;4971471;28;20440;-51
2022/05/28 13:05:47;;;;;;;4.40;4.10;;;18.90;99.90;;;;;;4962253;28;20437;-54
2022/05/28 13:08:26;;;;;;;4.07;3.87;;;19.30;99.90;;;;;;4953053;28;20435;-53
2022/05/28 13:11:04;;;;;;;3.27;3.13;;;20.10;99.90;;;;;;4967309;28;20554;-53
2022/05/28 13:14:01;;;;;;;4.27;3.97;;;21.20;99.90;;;;;;4968181;28;20434;-51
2022/05/28 13:16:36;;;;;;;3.37;3.17;;;21.70;99.90;;;;;;4965507;28;20493;-52
2022/05/28 13:19:13;;;;;;;4.00;3.70;;;21.60;99.90;;;;;;4971948;28;20452;-53
2022/05/28 13:21:57;;;;;;;3.67;3.47;;;21.20;99.90;;;;;;4966004;28;20451;-53
2022/05/28 13:24:28;;;;;;;6.90;3.40;;;20.80;99.90;;;;;;5003418;28;20531;-53
2022/05/28 13:27:24;;;;;;;3.53;3.33;;;20.50;99.90;;;;;;4973105;28;20442;-55